Portada
METAR-TAF:

METAR-TAF

Aeroports :

Vientiane, Laos

latitud: 17-57N, longitud: 102-34E, altitud: 171 m

Observació

L'informe es va fer fa 21 minuts, a les 14:30 UTC
Vent 4 kt del Sud-Oest
Temperatura 25°C
Humitat 79%
Pressió 1009 hPa
Visibilitat: 3000 m
boirina

METAR: VLVT 231430Z 22004KT 3000 BR NSC 25/21 Q1009 NOSIG

Hora: 21:51 (14:51 UTC)

Pronòstic

L'informe es va fer fa 3 hores i 51 minuts, a les 11:00 UTC
Pronòstic vàlid del 23 a les 12 UTC al 24 a les 12 UTC
Vent 4 kt del Est/Sud-Est
Visibilitat: 7000 m
Escasses núvols a una alçada de 2000 ft
Escasses núvols a una alçada de 20000 ft
Temporalment
l' 23 a les 14 UTC al 23 a les 20 UTC
Visibilitat: 3000 m
Escasses núvols a una alçada de 5000 ft
boirina

TAF: VLVT 231100Z 2312/2412 12004KT 7000 FEW020 FEW200 TEMPO 2314/2320 3000 BR FEW050

Observacions i pronòstics meteorològics de més de 4000 aeroports (METAR i TAF).

Les estacions disponibles són els punts grocs i vermells al mapa.

Posi el ratolí al punt desitjat per veure el nom de l'estació.

Feu clic per veure les observacions i els pronòstics meteorològics.

Per canviar el mapa: feu clic els botons verds amb una creu de color negre per apropar; al botó verd amb un guió per allunyar la imatge; o en les fletxes verdes per a mapes adjacents.


METAR-TAF: